createdAt,value
2019-05-06T00:02:07.260Z,2.85
2019-05-06T00:04:40.269Z,2.83
2019-05-06T00:07:10.085Z,2.85
2019-05-06T00:09:40.035Z,2.55
2019-05-06T00:12:10.205Z,2.55
2019-05-06T00:14:43.177Z,1.95
2019-05-06T00:17:14.555Z,1.98
2019-05-06T00:19:50.741Z,1.90
2019-05-06T00:22:23.766Z,1.85
2019-05-06T00:24:59.158Z,2.08
2019-05-06T00:27:37.512Z,2.65
2019-05-06T00:30:08.360Z,2.80
2019-05-06T00:32:38.079Z,2.33
2019-05-06T00:35:09.954Z,1.87
2019-05-06T00:37:40.747Z,2.22
2019-05-06T00:40:15.064Z,2.00
2019-05-06T00:42:48.795Z,2.47
2019-05-06T00:45:18.888Z,1.80
2019-05-06T00:47:49.002Z,1.92
2019-05-06T00:50:30.842Z,2.40
2019-05-06T00:53:04.487Z,1.70
2019-05-06T00:55:33.940Z,1.67
2019-05-06T00:58:04.099Z,1.57
2019-05-06T01:00:36.377Z,2.45
2019-05-06T01:03:25.818Z,2.10
2019-05-06T01:05:55.916Z,2.05
2019-05-06T01:08:30.952Z,1.65
2019-05-06T01:11:03.895Z,1.87
2019-05-06T01:13:43.691Z,1.82
2019-05-06T01:16:15.734Z,2.30
2019-05-06T01:18:58.634Z,2.90
2019-05-06T01:21:28.608Z,1.90
2019-05-06T01:23:58.852Z,2.25
2019-05-06T01:26:28.885Z,2.70
2019-05-06T01:28:58.842Z,2.35
2019-05-06T01:31:42.230Z,2.20
2019-05-06T01:34:01.686Z,2.47
2019-05-06T01:36:34.296Z,2.47
2019-05-06T01:39:21.684Z,1.77
2019-05-06T01:42:04.423Z,2.00
2019-05-06T01:44:34.456Z,2.05
2019-05-06T01:47:04.553Z,2.05
2019-05-06T01:49:34.664Z,2.40
2019-05-06T01:52:06.753Z,2.80
2019-05-06T01:54:36.568Z,2.72
2019-05-06T01:57:06.284Z,2.62
2019-05-06T01:59:36.240Z,2.35
2019-05-06T02:02:06.411Z,1.90
2019-05-06T02:04:36.532Z,2.05
2019-05-06T02:07:14.302Z,2.15
2019-05-06T02:09:44.748Z,2.25
2019-05-06T02:12:16.331Z,2.83
2019-05-06T02:14:47.968Z,2.85
2019-05-06T02:17:17.672Z,3.65
2019-05-06T02:19:47.404Z,2.17
2019-05-06T02:22:24.574Z,3.15
2019-05-06T02:24:58.348Z,2.50
2019-05-06T02:27:28.520Z,2.77
2019-05-06T02:30:05.547Z,2.00
2019-05-06T02:32:45.556Z,2.30
2019-05-06T02:35:26.479Z,2.62
2019-05-06T02:37:58.595Z,2.40
2019-05-06T02:40:32.959Z,2.80
2019-05-06T02:43:03.257Z,2.85
2019-05-06T02:45:33.830Z,2.50
2019-05-06T02:48:09.306Z,2.70
2019-05-06T02:50:46.592Z,3.25
2019-05-06T02:53:18.004Z,3.45
2019-05-06T02:55:48.720Z,4.25
2019-05-06T02:58:18.677Z,3.27
2019-05-06T03:00:54.760Z,3.10
2019-05-06T03:03:25.111Z,3.05
2019-05-06T03:05:55.198Z,3.60
2019-05-06T03:08:25.360Z,3.20
2019-05-06T03:10:55.460Z,3.02
2019-05-06T03:13:25.573Z,3.60
2019-05-06T03:15:55.669Z,3.17
2019-05-06T03:18:26.444Z,3.12
2019-05-06T03:20:57.781Z,3.25
2019-05-06T03:23:35.340Z,3.85
2019-05-06T03:26:06.508Z,3.45
2019-05-06T03:28:38.840Z,2.72
2019-05-06T03:31:15.579Z,2.35
2019-05-06T03:34:03.643Z,2.55
2019-05-06T03:36:27.745Z,3.42
2019-05-06T03:38:53.591Z,2.20
2019-05-06T03:41:26.722Z,2.55
2019-05-06T03:43:56.312Z,2.83
2019-05-06T03:46:46.165Z,2.60
2019-05-06T03:49:16.545Z,4.10
2019-05-06T03:51:55.984Z,3.00
2019-05-06T03:54:24.390Z,3.50
2019-05-06T03:56:57.121Z,2.87
2019-05-06T03:59:29.477Z,3.90
2019-05-06T04:01:59.587Z,3.70
2019-05-06T04:04:29.697Z,3.00
2019-05-06T04:07:03.432Z,3.87
2019-05-06T04:09:33.555Z,3.80
2019-05-06T04:12:04.136Z,3.25
2019-05-06T04:14:34.821Z,3.55
2019-05-06T04:17:08.221Z,3.20
2019-05-06T04:19:43.566Z,3.70
2019-05-06T04:22:17.518Z,3.35
2019-05-06T04:24:49.261Z,2.70
2019-05-06T04:27:44.224Z,4.03
2019-05-06T04:30:14.436Z,3.42
2019-05-06T04:32:44.531Z,4.75
2019-05-06T04:35:22.769Z,4.28
2019-05-06T04:37:53.854Z,4.45
2019-05-06T04:40:24.187Z,5.35
2019-05-06T04:42:55.294Z,4.97
2019-05-06T04:45:25.542Z,4.90
2019-05-06T04:47:55.396Z,5.53
2019-05-06T04:50:25.501Z,4.80
2019-05-06T04:53:05.671Z,5.78
2019-05-06T04:55:37.114Z,4.72
2019-05-06T04:58:18.125Z,5.55
2019-05-06T05:00:49.446Z,5.58
2019-05-06T05:03:22.506Z,5.20
2019-05-06T05:05:53.161Z,4.42
2019-05-06T05:08:29.353Z,6.05
2019-05-06T05:11:03.834Z,5.50
2019-05-06T05:13:36.221Z,5.50
2019-05-06T05:16:12.850Z,4.72
2019-05-06T05:18:44.476Z,5.45
2019-05-06T05:21:14.484Z,4.58
2019-05-06T05:23:45.588Z,4.65
2019-05-06T05:26:16.480Z,5.67
2019-05-06T05:28:46.410Z,5.03
2019-05-06T05:31:18.032Z,5.50
2019-05-06T05:33:47.975Z,5.17
2019-05-06T05:36:18.057Z,4.53
2019-05-06T05:38:48.325Z,5.60
2019-05-06T05:41:18.126Z,5.00
2019-05-06T05:43:55.470Z,5.80
2019-05-06T05:46:26.020Z,5.35
2019-05-06T05:49:19.088Z,5.40
2019-05-06T05:51:51.981Z,5.28
2019-05-06T05:54:23.291Z,5.83
2019-05-06T05:56:53.129Z,5.80
2019-05-06T05:59:23.379Z,5.53
2019-05-06T06:01:54.017Z,5.60
2019-05-06T06:04:24.314Z,6.78
2019-05-06T06:06:54.208Z,5.62
2019-05-06T06:09:26.533Z,5.87
2019-05-06T06:11:58.302Z,5.12
2019-05-06T06:14:30.038Z,5.27
2019-05-06T06:17:17.484Z,4.95
2019-05-06T06:19:57.918Z,4.43
2019-05-06T06:22:32.925Z,4.70
2019-05-06T06:25:04.458Z,4.47
2019-05-06T06:27:36.325Z,4.13
2019-05-06T06:30:07.121Z,3.53
2019-05-06T06:32:36.873Z,3.57
2019-05-06T06:35:14.884Z,3.60
2019-05-06T06:37:56.661Z,3.57
2019-05-06T06:40:27.188Z,3.53
2019-05-06T06:42:58.820Z,2.73
2019-05-06T06:45:28.509Z,2.97
2019-05-06T06:47:58.203Z,4.43
2019-05-06T06:50:27.876Z,3.07
2019-05-06T06:52:57.572Z,3.10
2019-05-06T06:55:27.269Z,3.07
2019-05-06T06:58:00.123Z,3.63
2019-05-06T07:00:49.173Z,3.10
2019-05-06T07:03:25.438Z,2.87
2019-05-06T07:05:56.961Z,3.40
2019-05-06T07:08:36.522Z,3.93
2019-05-06T07:10:58.724Z,3.47
2019-05-06T07:13:32.701Z,2.93
2019-05-06T07:16:03.039Z,3.00
2019-05-06T07:18:33.977Z,2.87
2019-05-06T07:21:07.006Z,2.70
2019-05-06T07:23:38.138Z,2.93
2019-05-06T07:26:11.978Z,2.80
2019-05-06T07:28:43.894Z,2.70
2019-05-06T07:31:21.888Z,2.90
2019-05-06T07:33:45.398Z,3.23
2019-05-06T07:36:15.588Z,3.10
2019-05-06T07:38:52.729Z,2.30
2019-05-06T07:41:24.006Z,2.60
2019-05-06T07:43:55.852Z,3.20
2019-05-06T07:46:29.761Z,3.37
2019-05-06T07:48:59.732Z,3.03
2019-05-06T07:51:29.833Z,3.20
2019-05-06T07:53:59.917Z,2.87
2019-05-06T07:56:32.217Z,2.97
2019-05-06T07:59:07.833Z,3.10
2019-05-06T08:01:43.771Z,3.30
2019-05-06T08:04:12.929Z,2.27
2019-05-06T08:06:42.941Z,3.23
2019-05-06T08:09:14.017Z,3.10
2019-05-06T08:11:44.100Z,3.17
2019-05-06T08:14:14.227Z,4.00
2019-05-06T08:16:46.121Z,3.30
2019-05-06T08:19:16.280Z,3.20
2019-05-06T08:21:48.013Z,3.20
2019-05-06T08:24:18.105Z,3.40
2019-05-06T08:26:48.193Z,3.10
2019-05-06T08:29:18.285Z,3.77
2019-05-06T08:31:48.399Z,3.60
2019-05-06T08:34:18.493Z,3.40
2019-05-06T08:36:50.469Z,4.70
2019-05-06T08:39:22.029Z,3.63
2019-05-06T08:41:52.847Z,3.10
2019-05-06T08:44:22.761Z,3.20
2019-05-06T08:46:53.337Z,3.60
2019-05-06T08:49:23.225Z,3.40
2019-05-06T08:52:02.433Z,4.30
2019-05-06T08:54:37.014Z,3.40
2019-05-06T08:57:06.837Z,3.33
2019-05-06T08:59:36.542Z,3.63
2019-05-06T09:02:07.535Z,3.60
2019-05-06T09:04:37.497Z,3.10
2019-05-06T09:07:07.317Z,3.97
2019-05-06T09:09:37.285Z,4.60
2019-05-06T09:12:07.093Z,4.07
2019-05-06T09:14:37.081Z,4.30
2019-05-06T09:17:07.372Z,4.67
2019-05-06T09:19:37.321Z,4.20
2019-05-06T09:22:07.422Z,4.97
2019-05-06T09:24:37.279Z,4.10
2019-05-06T09:27:08.609Z,4.13
2019-05-06T09:29:39.933Z,4.23
2019-05-06T09:32:13.772Z,4.57
2019-05-06T09:34:44.813Z,4.10
2019-05-06T09:37:16.536Z,5.20
2019-05-06T09:39:47.134Z,4.97
2019-05-06T09:42:17.736Z,4.53
2019-05-06T09:44:50.661Z,4.40
2019-05-06T09:47:24.551Z,4.73
2019-05-06T09:49:54.377Z,4.53
2019-05-06T09:52:24.350Z,4.50
2019-05-06T09:54:58.485Z,3.90
2019-05-06T09:57:32.526Z,4.37
2019-05-06T10:00:04.626Z,4.47
2019-05-06T10:02:33.953Z,4.30
2019-05-06T10:05:05.527Z,4.33
2019-05-06T10:07:35.494Z,3.97
2019-05-06T10:10:06.365Z,4.87
2019-05-06T10:12:37.258Z,4.10
2019-05-06T10:15:07.565Z,4.00
2019-05-06T10:17:38.619Z,4.13
2019-05-06T10:20:09.430Z,3.73
2019-05-06T10:22:39.273Z,3.70
2019-05-06T10:25:12.228Z,3.60
2019-05-06T10:27:43.994Z,5.10
2019-05-06T10:30:15.961Z,4.33
2019-05-06T10:32:47.697Z,5.03
2019-05-06T10:35:17.855Z,4.10
2019-05-06T10:38:06.180Z,4.60
2019-05-06T10:40:57.324Z,4.30
2019-05-06T10:43:34.340Z,4.07
2019-05-06T10:46:04.376Z,4.10
2019-05-06T10:48:35.093Z,3.90
2019-05-06T10:51:13.207Z,4.37
2019-05-06T10:53:44.215Z,4.03
2019-05-06T10:56:28.073Z,3.30
2019-05-06T10:59:01.944Z,3.07
2019-05-06T11:01:42.697Z,2.60
2019-05-06T11:04:12.857Z,2.70
2019-05-06T11:06:43.607Z,2.80
2019-05-06T11:09:13.697Z,2.53
2019-05-06T11:11:43.864Z,2.70
2019-05-06T11:14:14.001Z,3.00
2019-05-06T11:16:44.110Z,3.40
2019-05-06T11:19:13.933Z,3.13
2019-05-06T11:21:45.355Z,2.97
2019-05-06T11:24:15.197Z,2.33
2019-05-06T11:26:44.919Z,2.90
2019-05-06T11:29:18.745Z,2.67
2019-05-06T11:32:05.525Z,2.20
2019-05-06T11:34:37.006Z,2.47
2019-05-06T11:37:20.223Z,2.50
2019-05-06T11:39:52.650Z,2.80
2019-05-06T11:42:28.957Z,2.70
2019-05-06T11:44:54.885Z,2.83
2019-05-06T11:47:24.712Z,3.00
2019-05-06T11:49:56.529Z,3.27
2019-05-06T11:52:26.586Z,2.30
2019-05-06T11:54:56.553Z,2.30
2019-05-06T11:57:26.385Z,3.40
2019-05-06T11:59:56.357Z,3.27
2019-05-06T12:02:28.311Z,3.30
2019-05-06T12:04:58.142Z,2.60
2019-05-06T12:07:28.111Z,3.43
2019-05-06T12:09:58.206Z,3.07
2019-05-06T12:12:29.237Z,3.17
2019-05-06T12:14:59.057Z,3.13
2019-05-06T12:17:29.017Z,2.93
2019-05-06T12:19:59.375Z,3.60
2019-05-06T12:22:38.028Z,4.53
2019-05-06T12:25:12.638Z,2.70
2019-05-06T12:27:44.179Z,3.13
2019-05-06T12:30:19.434Z,2.97
2019-05-06T12:32:52.669Z,3.20
2019-05-06T12:35:22.829Z,3.03
2019-05-06T12:37:54.557Z,3.47
2019-05-06T12:40:24.373Z,4.10
2019-05-06T12:42:56.009Z,3.90
2019-05-06T12:45:33.168Z,4.37
2019-05-06T12:48:04.762Z,4.27
2019-05-06T12:50:34.598Z,3.80
2019-05-06T12:53:04.297Z,3.30
2019-05-06T12:55:34.266Z,4.20
2019-05-06T12:58:04.384Z,3.83
2019-05-06T13:00:34.479Z,3.80
2019-05-06T13:03:04.651Z,4.03
2019-05-06T13:05:34.505Z,3.70
2019-05-06T13:08:06.222Z,5.10
2019-05-06T13:10:36.018Z,3.80
2019-05-06T13:13:06.053Z,3.90
2019-05-06T13:15:35.962Z,4.27
2019-05-06T13:18:07.453Z,3.83
2019-05-06T13:20:38.049Z,3.63
2019-05-06T13:23:24.634Z,4.07
2019-05-06T13:25:55.125Z,4.97
2019-05-06T13:28:45.094Z,4.00
2019-05-06T13:31:20.930Z,4.10
2019-05-06T13:33:54.642Z,3.77
2019-05-06T13:36:25.787Z,4.13
2019-05-06T13:39:09.531Z,3.50
2019-05-06T13:41:33.849Z,4.20
2019-05-06T13:44:17.477Z,4.53
2019-05-06T13:46:49.225Z,3.97
2019-05-06T13:49:27.295Z,4.23
2019-05-06T13:52:04.775Z,4.47
2019-05-06T13:54:34.743Z,3.90
2019-05-06T13:57:05.682Z,4.50
2019-05-06T13:59:36.934Z,4.80
2019-05-06T14:02:09.103Z,4.47
2019-05-06T14:04:39.018Z,4.37
2019-05-06T14:07:08.964Z,4.17
2019-05-06T14:09:40.525Z,4.87
2019-05-06T14:12:11.786Z,5.03
2019-05-06T14:14:43.137Z,4.43
2019-05-06T14:17:13.165Z,3.70
2019-05-06T14:19:43.251Z,4.00
2019-05-06T14:22:13.089Z,4.43
2019-05-06T14:24:44.686Z,4.17
2019-05-06T14:27:16.409Z,4.53
2019-05-06T14:29:53.307Z,4.93
2019-05-06T14:32:23.727Z,4.60
2019-05-06T14:34:53.834Z,5.53
2019-05-06T14:37:23.655Z,5.80
2019-05-06T14:39:59.139Z,3.77
2019-05-06T14:42:27.313Z,3.80
2019-05-06T14:44:57.002Z,3.77
2019-05-06T14:47:28.313Z,3.63
2019-05-06T14:49:58.752Z,3.57
2019-05-06T14:52:28.576Z,3.60
2019-05-06T14:54:59.889Z,3.87
2019-05-06T14:57:32.124Z,4.37
2019-05-06T15:00:04.177Z,4.00
2019-05-06T15:02:33.942Z,3.70
2019-05-06T15:05:05.810Z,5.17
2019-05-06T15:07:35.761Z,4.10
2019-05-06T15:10:19.202Z,3.70
2019-05-06T15:12:38.566Z,4.60
2019-05-06T15:15:08.913Z,5.00
2019-05-06T15:17:38.905Z,4.00
2019-05-06T15:20:08.837Z,7.10
2019-05-06T15:22:38.798Z,3.47
2019-05-06T15:25:09.903Z,3.33
2019-05-06T15:27:42.477Z,3.33
2019-05-06T15:30:16.823Z,2.90
2019-05-06T15:32:46.923Z,3.40
2019-05-06T15:35:18.737Z,4.97
2019-05-06T15:37:53.129Z,5.20
2019-05-06T15:40:32.216Z,5.80
2019-05-06T15:42:54.245Z,4.17
2019-05-06T15:45:24.239Z,3.50
2019-05-06T15:47:54.340Z,5.40
2019-05-06T15:50:24.437Z,4.67
2019-05-06T15:52:54.259Z,4.93
2019-05-06T15:55:25.145Z,4.50
2019-05-06T15:57:56.499Z,4.03
2019-05-06T16:00:29.250Z,4.67
2019-05-06T16:02:59.258Z,4.17
2019-05-06T16:05:31.111Z,4.30
2019-05-06T16:08:02.889Z,3.90
2019-05-06T16:10:50.211Z,3.60
2019-05-06T16:13:04.569Z,4.40
2019-05-06T16:15:34.660Z,3.73
2019-05-06T16:18:04.899Z,3.53
2019-05-06T16:20:35.987Z,3.70
2019-05-06T16:23:07.722Z,3.50
2019-05-06T16:25:38.809Z,3.17
2019-05-06T16:28:08.625Z,4.17
2019-05-06T16:30:38.314Z,3.80
2019-05-06T16:33:08.030Z,4.57
2019-05-06T16:35:37.985Z,4.00
2019-05-06T16:38:07.821Z,3.87
2019-05-06T16:40:37.773Z,4.07
2019-05-06T16:43:08.535Z,4.03
2019-05-06T16:45:38.258Z,4.03
2019-05-06T16:48:08.889Z,3.80
2019-05-06T16:50:38.855Z,3.47
2019-05-06T16:53:12.104Z,3.60
2019-05-06T16:56:02.290Z,3.40
2019-05-06T16:58:46.906Z,3.70
2019-05-06T17:01:16.879Z,4.50
2019-05-06T17:03:48.626Z,3.70
2019-05-06T17:06:20.365Z,3.60
2019-05-06T17:08:52.681Z,4.00
2019-05-06T17:11:27.893Z,5.40
2019-05-06T17:13:54.717Z,4.20
2019-05-06T17:16:25.613Z,2.80
2019-05-06T17:18:56.769Z,3.30
2019-05-06T17:21:28.650Z,3.40
2019-05-06T17:23:58.426Z,3.27
2019-05-06T17:26:28.115Z,3.27
2019-05-06T17:29:09.168Z,3.60
2019-05-06T17:31:50.158Z,3.50
2019-05-06T17:34:21.477Z,3.77
2019-05-06T17:36:53.449Z,3.73
2019-05-06T17:39:23.726Z,4.93
2019-05-06T17:41:53.590Z,8.60
2019-05-06T17:44:24.637Z,7.23
2019-05-06T17:47:05.566Z,6.80
2019-05-06T17:49:37.006Z,5.50
2019-05-06T17:52:17.135Z,4.50
2019-05-06T17:54:47.085Z,5.17
2019-05-06T17:57:17.310Z,6.87
2019-05-06T17:59:47.463Z,5.80
2019-05-06T18:02:19.930Z,5.40
2019-05-06T18:04:49.648Z,7.67
2019-05-06T18:07:19.349Z,4.10
2019-05-06T18:09:49.298Z,4.10
2019-05-06T18:12:19.112Z,3.80
2019-05-06T18:14:49.790Z,4.23
2019-05-06T18:17:19.492Z,8.60
2019-05-06T18:19:49.916Z,7.27
2019-05-06T18:22:19.990Z,5.40
2019-05-06T18:24:52.621Z,7.13
2019-05-06T18:27:22.785Z,7.27
2019-05-06T18:29:53.293Z,6.33
2019-05-06T18:32:23.523Z,7.87
2019-05-06T18:34:54.158Z,6.63
2019-05-06T18:37:24.109Z,5.30
2019-05-06T18:39:54.214Z,5.93
2019-05-06T18:42:25.254Z,5.07
2019-05-06T18:44:55.416Z,5.90
2019-05-06T18:47:25.226Z,4.43
2019-05-06T18:49:55.208Z,4.80
2019-05-06T18:52:25.692Z,3.93
2019-05-06T18:54:55.962Z,3.80
2019-05-06T18:57:25.457Z,4.23
2019-05-06T18:59:55.286Z,3.63
2019-05-06T19:02:26.894Z,3.30
2019-05-06T19:04:58.366Z,3.53
2019-05-06T19:07:28.065Z,3.40
2019-05-06T19:09:59.680Z,4.00
2019-05-06T19:12:39.169Z,3.60
2019-05-06T19:15:03.314Z,3.47
2019-05-06T19:17:33.557Z,4.13
2019-05-06T19:20:04.030Z,4.10
2019-05-06T19:22:33.714Z,4.10
2019-05-06T19:25:03.209Z,4.10
2019-05-06T19:27:33.417Z,4.53
2019-05-06T19:30:04.833Z,4.73
2019-05-06T19:32:42.484Z,5.30
2019-05-06T19:35:14.794Z,5.37
2019-05-06T19:37:44.798Z,7.50
2019-05-06T19:40:15.824Z,6.77
2019-05-06T19:42:50.017Z,5.72
2019-05-06T19:45:18.364Z,6.70
2019-05-06T19:47:48.324Z,5.60
2019-05-06T19:50:23.600Z,6.83
2019-05-06T19:52:52.845Z,5.90
2019-05-06T19:55:23.774Z,6.10
2019-05-06T19:58:12.991Z,6.05
2019-05-06T20:00:44.606Z,5.25
2019-05-06T20:03:14.183Z,4.87
2019-05-06T20:05:48.426Z,7.10
2019-05-06T20:08:32.548Z,5.65
2019-05-06T20:11:16.059Z,5.50
2019-05-06T20:13:45.890Z,5.33
2019-05-06T20:16:15.842Z,5.35
2019-05-06T20:18:46.650Z,6.80
2019-05-06T20:21:15.842Z,5.72
2019-05-06T20:23:45.363Z,5.47
2019-05-06T20:26:14.894Z,6.42
2019-05-06T20:28:45.674Z,6.62
2019-05-06T20:31:15.374Z,5.97
2019-05-06T20:33:46.240Z,6.20
2019-05-06T20:36:16.330Z,7.28
2019-05-06T20:38:48.081Z,6.22
2019-05-06T20:41:18.046Z,5.60
2019-05-06T20:43:48.990Z,5.72
2019-05-06T20:46:18.663Z,5.97
2019-05-06T20:48:48.634Z,5.25
2019-05-06T20:51:32.928Z,5.33
2019-05-06T20:54:01.257Z,5.15
2019-05-06T20:56:32.743Z,5.00
2019-05-06T20:59:02.719Z,5.05
2019-05-06T21:01:34.750Z,4.97
2019-05-06T21:04:09.105Z,5.87
2019-05-06T21:06:39.078Z,6.05
2019-05-06T21:09:08.858Z,5.15
2019-05-06T21:11:42.164Z,5.40
2019-05-06T21:14:13.352Z,4.62
2019-05-06T21:16:43.322Z,4.50
2019-05-06T21:19:13.139Z,6.12
2019-05-06T21:21:43.518Z,5.00
2019-05-06T21:24:13.727Z,6.00
2019-05-06T21:26:46.243Z,4.95
2019-05-06T21:29:14.910Z,5.20
2019-05-06T21:31:44.586Z,4.25
2019-05-06T21:34:15.304Z,5.60
2019-05-06T21:36:45.298Z,4.70
2019-05-06T21:39:14.998Z,4.67
2019-05-06T21:41:45.878Z,5.45
2019-05-06T21:44:17.148Z,5.78
2019-05-06T21:46:47.914Z,5.45
2019-05-06T21:49:18.626Z,5.10
2019-05-06T21:51:50.545Z,5.85
2019-05-06T21:54:23.014Z,5.80
2019-05-06T21:56:53.195Z,5.08
2019-05-06T21:59:23.744Z,4.62
2019-05-06T22:01:53.898Z,5.00
2019-05-06T22:04:23.995Z,4.83
2019-05-06T22:06:54.076Z,5.80
2019-05-06T22:09:24.667Z,5.58
2019-05-06T22:11:58.722Z,4.70
2019-05-06T22:14:33.630Z,5.45
2019-05-06T22:17:06.640Z,6.05
2019-05-06T22:19:45.518Z,6.78
2019-05-06T22:22:20.398Z,5.70
2019-05-06T22:24:57.281Z,6.00
2019-05-06T22:27:22.091Z,6.55
2019-05-06T22:29:53.157Z,6.53
2019-05-06T22:32:24.034Z,5.90
2019-05-06T22:34:54.922Z,5.83
2019-05-06T22:37:25.008Z,7.85
2019-05-06T22:39:55.118Z,5.50
2019-05-06T22:42:25.226Z,6.30
2019-05-06T22:44:55.299Z,6.40
2019-05-06T22:47:25.123Z,6.05
2019-05-06T22:49:55.090Z,6.30
2019-05-06T22:52:25.173Z,6.42
2019-05-06T22:54:56.174Z,5.30
2019-05-06T22:57:26.002Z,5.83
2019-05-06T22:59:56.678Z,6.35
2019-05-06T23:02:29.194Z,6.55
2019-05-06T23:05:04.211Z,5.95
2019-05-06T23:07:34.134Z,7.33
2019-05-06T23:10:06.855Z,5.97
2019-05-06T23:12:36.938Z,6.58
2019-05-06T23:15:08.227Z,6.35
2019-05-06T23:17:38.186Z,6.60
2019-05-06T23:20:08.146Z,7.20
2019-05-06T23:22:38.340Z,6.30
2019-05-06T23:25:08.232Z,6.83
2019-05-06T23:27:38.184Z,6.78
2019-05-06T23:30:09.575Z,7.65
2019-05-06T23:32:39.386Z,7.30
2019-05-06T23:35:09.338Z,6.80
2019-05-06T23:38:15.094Z,6.25
2019-05-06T23:41:38.842Z,7.20
2019-05-06T23:45:03.231Z,6.50
2019-05-06T23:48:08.802Z,6.10
2019-05-06T23:51:33.074Z,5.45
2019-05-06T23:54:39.987Z,5.22
2019-05-06T23:57:08.594Z,6.17
2019-05-06T23:59:38.550Z,6.10
